createdAt,value
2018-06-03T00:00:13.626Z,59.30
2018-06-03T00:02:39.811Z,59.50
2018-06-03T00:05:06.034Z,59.40
2018-06-03T00:07:32.234Z,59.10
2018-06-03T00:09:58.444Z,59.20
2018-06-03T00:12:25.366Z,59.90
2018-06-03T00:14:51.554Z,59.10
2018-06-03T00:17:17.762Z,59.10
2018-06-03T00:19:43.988Z,59.10
2018-06-03T00:22:10.190Z,59.20
2018-06-03T00:24:36.398Z,59.20
2018-06-03T00:27:02.612Z,59.00
2018-06-03T00:29:28.846Z,58.90
2018-06-03T00:31:55.049Z,59.10
2018-06-03T00:34:21.265Z,58.80
2018-06-03T00:36:47.464Z,58.90
2018-06-03T00:39:13.664Z,58.90
2018-06-03T00:41:39.890Z,58.80
2018-06-03T00:44:06.125Z,58.80
2018-06-03T00:46:32.322Z,58.80
2018-06-03T00:48:58.534Z,58.60
2018-06-03T00:51:24.731Z,58.60
2018-06-03T00:53:50.962Z,58.70
2018-06-03T00:56:17.196Z,58.60
2018-06-03T00:58:43.404Z,59.20
2018-06-03T01:01:09.624Z,58.60
2018-06-03T01:03:35.811Z,58.50
2018-06-03T01:06:02.027Z,58.60
2018-06-03T01:08:28.224Z,58.60
2018-06-03T01:10:54.431Z,58.50
2018-06-03T01:13:22.548Z,58.60
2018-06-03T01:15:48.735Z,58.50
2018-06-03T01:18:14.937Z,58.60
2018-06-03T01:20:41.120Z,58.70
2018-06-03T01:23:07.343Z,58.60
2018-06-03T01:25:34.281Z,58.70
2018-06-03T01:28:01.212Z,58.70
2018-06-03T01:30:27.412Z,58.70
2018-06-03T01:32:53.614Z,58.80
2018-06-03T01:35:19.795Z,58.90
2018-06-03T01:37:45.991Z,58.90
2018-06-03T01:40:12.948Z,58.80
2018-06-03T01:42:39.171Z,58.80
2018-06-03T01:45:05.382Z,59.00
2018-06-03T01:47:31.585Z,58.90
2018-06-03T01:49:58.527Z,58.80
2018-06-03T01:52:24.739Z,58.80
2018-06-03T01:54:51.713Z,58.90
2018-06-03T01:57:17.920Z,58.80
2018-06-03T01:59:44.176Z,59.00
2018-06-03T02:02:11.110Z,58.90
2018-06-03T02:04:37.345Z,59.00
2018-06-03T02:07:03.607Z,58.90
2018-06-03T02:09:29.815Z,59.00
2018-06-03T02:11:56.021Z,58.90
2018-06-03T02:14:22.971Z,59.10
2018-06-03T02:16:49.165Z,59.00
2018-06-03T02:19:15.378Z,59.00
2018-06-03T02:21:41.623Z,59.70
2018-06-03T02:24:07.829Z,58.60
2018-06-03T02:26:34.021Z,59.00
2018-06-03T02:29:00.213Z,59.10
2018-06-03T02:31:26.410Z,59.10
2018-06-03T02:33:53.327Z,59.10
2018-06-03T02:36:19.530Z,59.00
2018-06-03T02:38:45.767Z,59.10
2018-06-03T02:41:11.987Z,59.00
2018-06-03T02:43:38.221Z,59.00
2018-06-03T02:46:04.428Z,59.00
2018-06-03T02:48:31.373Z,58.90
2018-06-03T02:50:58.333Z,58.90
2018-06-03T02:53:24.548Z,58.90
2018-06-03T02:55:51.737Z,58.90
2018-06-03T02:58:17.949Z,58.80
2018-06-03T03:00:44.149Z,58.80
2018-06-03T03:03:11.099Z,58.80
2018-06-03T03:05:37.285Z,58.70
2018-06-03T03:08:03.460Z,58.80
2018-06-03T03:10:29.698Z,58.80
2018-06-03T03:12:55.901Z,58.80
2018-06-03T03:15:22.089Z,58.90
2018-06-03T03:17:48.291Z,58.70
2018-06-03T03:20:14.548Z,58.80
2018-06-03T03:22:41.472Z,58.70
2018-06-03T03:25:07.694Z,58.70
2018-06-03T03:27:33.874Z,58.70
2018-06-03T03:30:00.082Z,58.70
2018-06-03T03:32:26.278Z,58.70
2018-06-03T03:34:53.252Z,58.80
2018-06-03T03:37:19.438Z,58.70
2018-06-03T03:39:46.392Z,58.80
2018-06-03T03:42:13.339Z,58.70
2018-06-03T03:44:39.552Z,58.60
2018-06-03T03:47:05.779Z,58.50
2018-06-03T03:49:31.992Z,58.70
2018-06-03T03:51:58.180Z,58.70
2018-06-03T03:54:24.389Z,58.60
2018-06-03T03:56:50.571Z,58.60
2018-06-03T03:59:16.746Z,58.60
2018-06-03T04:01:42.944Z,58.50
2018-06-03T04:04:09.894Z,58.60
2018-06-03T04:06:36.854Z,58.50
2018-06-03T04:09:03.088Z,58.40
2018-06-03T04:11:29.338Z,58.40
2018-06-03T04:13:55.520Z,58.50
2018-06-03T04:16:21.715Z,58.40
2018-06-03T04:18:48.667Z,58.60
2018-06-03T04:21:15.600Z,58.50
2018-06-03T04:23:42.008Z,58.40
2018-06-03T04:26:08.946Z,58.60
2018-06-03T04:28:35.126Z,58.60
2018-06-03T04:31:02.073Z,58.60
2018-06-03T04:33:28.827Z,58.60
2018-06-03T04:35:55.755Z,59.30
2018-06-03T04:38:22.710Z,58.70
2018-06-03T04:40:49.640Z,58.60
2018-06-03T04:43:15.873Z,58.60
2018-06-03T04:45:42.071Z,58.50
2018-06-03T04:48:08.282Z,58.50
2018-06-03T04:50:35.223Z,58.50
2018-06-03T04:53:01.394Z,58.50
2018-06-03T04:55:27.594Z,58.60
2018-06-03T04:57:53.782Z,58.70
2018-06-03T05:00:19.998Z,58.60
2018-06-03T05:02:46.238Z,58.70
2018-06-03T05:05:12.455Z,58.80
2018-06-03T05:07:39.394Z,58.80
2018-06-03T05:10:06.316Z,58.90
2018-06-03T05:12:32.932Z,58.90
2018-06-03T05:14:59.110Z,59.10
2018-06-03T05:17:26.042Z,59.10
2018-06-03T05:19:52.253Z,59.10
2018-06-03T05:22:18.451Z,59.10
2018-06-03T05:24:44.626Z,59.20
2018-06-03T05:27:11.575Z,59.10
2018-06-03T05:29:37.790Z,59.10
2018-06-03T05:32:03.993Z,59.20
2018-06-03T05:34:30.209Z,59.20
2018-06-03T05:36:56.418Z,59.20
2018-06-03T05:39:23.345Z,59.40
2018-06-03T05:41:49.517Z,59.40
2018-06-03T05:44:16.453Z,59.50
2018-06-03T05:46:43.404Z,59.70
2018-06-03T05:49:10.339Z,59.60
2018-06-03T05:51:37.261Z,60.40
2018-06-03T05:54:03.443Z,59.60
2018-06-03T05:56:29.657Z,59.70
2018-06-03T05:58:55.863Z,59.70
2018-06-03T06:01:22.807Z,59.60
2018-06-03T06:03:48.993Z,59.60
2018-06-03T06:06:15.191Z,59.40
2018-06-03T06:08:41.389Z,59.20
2018-06-03T06:11:07.588Z,59.20
2018-06-03T06:13:33.773Z,59.20
2018-06-03T06:15:59.974Z,59.20
2018-06-03T06:18:26.919Z,59.10
2018-06-03T06:20:53.881Z,59.20
2018-06-03T06:23:20.077Z,59.10
2018-06-03T06:25:46.275Z,59.20
2018-06-03T06:28:12.461Z,59.20
2018-06-03T06:30:38.687Z,59.10
2018-06-03T06:33:04.894Z,58.90
2018-06-03T06:35:31.092Z,59.10
2018-06-03T06:37:57.289Z,59.00
2018-06-03T06:40:24.225Z,59.10
2018-06-03T06:42:50.416Z,59.00
2018-06-03T06:45:16.572Z,59.20
2018-06-03T06:47:42.766Z,58.70
2018-06-03T06:50:08.983Z,58.10
2018-06-03T06:52:35.879Z,58.80
2018-06-03T06:55:02.087Z,58.80
2018-06-03T06:57:28.317Z,59.80
2018-06-03T06:59:54.555Z,59.00
2018-06-03T07:02:20.765Z,57.60
2018-06-03T07:04:46.966Z,58.20
2018-06-03T07:07:13.924Z,58.60
2018-06-03T07:09:40.169Z,58.40
2018-06-03T07:12:07.443Z,57.50
2018-06-03T07:14:34.475Z,57.60
2018-06-03T07:17:00.698Z,57.50
2018-06-03T07:19:26.900Z,57.90
2018-06-03T07:21:53.848Z,57.10
2018-06-03T07:24:20.056Z,57.10
2018-06-03T07:26:46.250Z,58.20
2018-06-03T07:29:12.421Z,58.90
2018-06-03T07:31:38.592Z,58.40
2018-06-03T07:34:04.766Z,57.50
2018-06-03T07:36:30.959Z,57.80
2018-06-03T07:38:57.899Z,57.00
2018-06-03T07:41:24.081Z,56.90
2018-06-03T07:43:50.283Z,57.00
2018-06-03T07:46:16.512Z,57.80
2018-06-03T07:48:42.750Z,58.00
2018-06-03T07:51:09.730Z,57.40
2018-06-03T07:53:35.954Z,57.30
2018-06-03T07:56:02.143Z,56.90
2018-06-03T07:58:28.375Z,56.20
2018-06-03T08:00:54.598Z,56.10
2018-06-03T08:03:20.842Z,55.00
2018-06-03T08:05:47.082Z,55.00
2018-06-03T08:08:13.312Z,55.60
2018-06-03T08:10:39.554Z,55.20
2018-06-03T08:13:05.812Z,55.20
2018-06-03T08:15:31.959Z,55.00
2018-06-03T08:17:58.147Z,55.10
2018-06-03T08:20:24.332Z,54.40
2018-06-03T08:22:51.265Z,55.00
2018-06-03T08:25:17.444Z,55.00
2018-06-03T08:27:43.659Z,55.60
2018-06-03T08:30:09.864Z,54.90
2018-06-03T08:32:36.058Z,55.60
2018-06-03T08:35:02.238Z,55.60
2018-06-03T08:37:28.459Z,56.10
2018-06-03T08:39:54.662Z,56.40
2018-06-03T08:42:21.354Z,56.30
2018-06-03T08:44:48.289Z,55.20
2018-06-03T08:47:40.859Z,55.20
2018-06-03T08:50:07.331Z,54.70
2018-06-03T08:52:33.843Z,54.20
2018-06-03T08:55:00.326Z,54.00
2018-06-03T08:57:26.831Z,53.80
2018-06-03T08:59:53.292Z,52.70
2018-06-03T09:02:20.477Z,51.60
2018-06-03T09:04:46.961Z,51.80
2018-06-03T09:07:13.436Z,52.50
2018-06-03T09:09:39.910Z,52.80
2018-06-03T09:12:06.411Z,51.80
2018-06-03T09:14:32.902Z,51.70
2018-06-03T09:16:59.422Z,51.20
2018-06-03T09:19:25.874Z,51.70
2018-06-03T09:21:52.339Z,52.00
2018-06-03T09:24:18.854Z,52.30
2018-06-03T09:26:45.286Z,52.40
2018-06-03T09:29:11.820Z,52.50
2018-06-03T09:31:38.296Z,51.50
2018-06-03T09:34:04.801Z,52.10
2018-06-03T09:36:31.305Z,51.60
2018-06-03T09:41:24.809Z,51.60
2018-06-03T09:43:51.255Z,52.50
2018-06-03T09:46:17.754Z,51.70
2018-06-03T09:48:44.203Z,52.70
2018-06-03T09:51:10.684Z,53.20
2018-06-03T09:53:37.193Z,52.70
2018-06-03T09:56:03.646Z,52.40
2018-06-03T09:58:30.131Z,51.70
2018-06-03T10:00:56.620Z,52.10
2018-06-03T10:03:23.068Z,53.00
2018-06-03T10:05:49.547Z,52.70
2018-06-03T10:08:16.068Z,51.80
2018-06-03T10:10:42.572Z,51.60
2018-06-03T10:13:09.575Z,51.10
2018-06-03T10:18:03.057Z,50.50
2018-06-03T10:20:29.549Z,51.50
2018-06-03T10:22:56.061Z,50.60
2018-06-03T10:25:22.565Z,51.20
2018-06-03T10:27:49.012Z,50.50
2018-06-03T10:30:16.162Z,49.10
2018-06-03T10:32:42.681Z,48.50
2018-06-03T10:35:09.189Z,48.40
2018-06-03T10:37:35.649Z,48.60
2018-06-03T10:40:02.199Z,47.50
2018-06-03T10:42:29.487Z,48.10
2018-06-03T10:44:55.960Z,48.80
2018-06-03T10:47:22.547Z,48.20
2018-06-03T10:49:49.018Z,47.80
2018-06-03T10:52:16.012Z,49.10
2018-06-03T10:54:42.539Z,51.40
2018-06-03T10:57:09.685Z,52.50
2018-06-03T10:59:36.182Z,50.90
2018-06-03T11:02:02.625Z,53.70
2018-06-03T11:04:29.132Z,53.50
2018-06-03T11:06:55.595Z,54.20
2018-06-03T11:09:22.072Z,51.50
2018-06-03T11:11:48.570Z,52.60
2018-06-03T11:14:15.700Z,51.90
2018-06-03T11:16:42.211Z,49.80
2018-06-03T11:19:08.681Z,49.10
2018-06-03T11:21:35.173Z,50.10
2018-06-03T11:24:01.686Z,49.40
2018-06-03T11:26:28.235Z,46.70
2018-06-03T11:28:54.732Z,45.80
2018-06-03T11:31:21.269Z,45.90
2018-06-03T11:33:47.800Z,45.80
2018-06-03T11:36:14.309Z,45.90
2018-06-03T11:38:40.781Z,46.70
2018-06-03T11:41:07.277Z,46.80
2018-06-03T11:43:33.808Z,47.60
2018-06-03T11:46:00.352Z,46.80
2018-06-03T11:48:26.817Z,47.60
2018-06-03T11:50:53.423Z,46.90
2018-06-03T11:53:20.520Z,47.60
2018-06-03T11:55:47.027Z,48.80
2018-06-03T11:58:13.557Z,49.00
2018-06-03T12:00:40.104Z,49.50
2018-06-03T12:03:06.578Z,50.00
2018-06-03T12:05:33.092Z,49.60
2018-06-03T12:07:59.609Z,48.80
2018-06-03T12:10:26.066Z,47.50
2018-06-03T12:12:52.602Z,47.80
2018-06-03T12:15:19.119Z,46.40
2018-06-03T12:17:45.642Z,46.90
2018-06-03T12:20:12.096Z,46.30
2018-06-03T12:22:39.120Z,46.50
2018-06-03T12:25:05.604Z,47.50
2018-06-03T12:27:32.561Z,47.70
2018-06-03T12:29:59.022Z,46.70
2018-06-03T12:32:27.114Z,45.70
2018-06-03T12:34:53.570Z,45.40
2018-06-03T12:37:20.746Z,45.60
2018-06-03T12:39:47.200Z,45.40
2018-06-03T12:42:13.654Z,44.80
2018-06-03T12:44:40.097Z,44.80
2018-06-03T12:47:06.576Z,44.60
2018-06-03T12:49:33.024Z,44.60
2018-06-03T12:51:59.625Z,45.10
2018-06-03T12:54:26.111Z,45.70
2018-06-03T12:56:52.576Z,45.60
2018-06-03T12:59:19.092Z,46.20
2018-06-03T13:01:45.582Z,47.10
2018-06-03T13:04:12.063Z,48.40
2018-06-03T13:06:38.522Z,48.70
2018-06-03T13:09:05.051Z,48.80
2018-06-03T13:11:31.564Z,49.30
2018-06-03T13:13:58.088Z,49.70
2018-06-03T13:16:25.109Z,50.10
2018-06-03T13:18:51.691Z,50.80
2018-06-03T13:21:18.168Z,51.00
2018-06-03T13:23:44.795Z,51.80
2018-06-03T13:26:11.329Z,51.80
2018-06-03T13:28:37.861Z,52.10
2018-06-03T13:31:04.367Z,52.30
2018-06-03T13:33:30.834Z,52.30
2018-06-03T13:35:58.019Z,52.20
2018-06-03T13:38:24.541Z,52.40
2018-06-03T13:40:51.063Z,52.40
2018-06-03T13:43:17.631Z,52.40
2018-06-03T13:45:44.144Z,52.40
2018-06-03T13:48:12.834Z,52.90
2018-06-03T13:50:40.539Z,53.00
2018-06-03T13:53:07.020Z,53.30
2018-06-03T13:55:33.532Z,53.40
2018-06-03T13:57:59.992Z,53.60
2018-06-03T14:00:26.461Z,53.50
2018-06-03T14:02:54.299Z,53.70
2018-06-03T14:05:20.991Z,53.90
2018-06-03T14:07:47.501Z,53.80
2018-06-03T14:10:14.025Z,54.10
2018-06-03T14:12:41.504Z,54.10
2018-06-03T14:15:08.129Z,54.40
2018-06-03T14:17:34.605Z,54.30
2018-06-03T14:20:04.663Z,54.50
2018-06-03T14:22:31.266Z,54.40
2018-06-03T14:24:57.749Z,54.40
2018-06-03T14:27:24.182Z,54.50
2018-06-03T14:29:51.301Z,54.40
2018-06-03T14:32:17.999Z,54.70
2018-06-03T14:34:44.475Z,54.60
2018-06-03T14:39:37.919Z,54.80
2018-06-03T14:42:05.064Z,54.60
2018-06-03T14:44:31.593Z,54.80
2018-06-03T14:46:58.056Z,54.90
2018-06-03T14:49:24.519Z,55.20
2018-06-03T14:51:50.996Z,55.00
2018-06-03T14:54:17.567Z,54.80
2018-06-03T14:56:44.039Z,54.80
2018-06-03T14:59:10.590Z,54.80
2018-06-03T15:01:37.097Z,54.80
2018-06-03T15:04:04.223Z,55.00
2018-06-03T15:06:30.707Z,54.70
2018-06-03T15:08:57.243Z,54.70
2018-06-03T15:11:23.750Z,54.60
2018-06-03T15:13:50.348Z,54.50
2018-06-03T15:16:16.882Z,54.40
2018-06-03T15:18:43.386Z,54.40
2018-06-03T15:21:09.867Z,54.50
2018-06-03T15:23:36.374Z,54.40
2018-06-03T15:26:03.002Z,54.10
2018-06-03T15:28:29.634Z,54.30
2018-06-03T15:30:56.134Z,54.40
2018-06-03T15:33:22.605Z,54.20
2018-06-03T15:35:49.112Z,54.30
2018-06-03T15:38:15.737Z,54.00
2018-06-03T15:40:42.271Z,53.80
2018-06-03T15:43:09.266Z,53.70
2018-06-03T15:48:03.001Z,53.60
2018-06-03T15:50:29.516Z,53.60
2018-06-03T15:52:56.016Z,53.60
2018-06-03T15:55:22.546Z,53.70
2018-06-03T15:57:49.025Z,53.60
2018-06-03T16:00:15.655Z,53.70
2018-06-03T16:02:42.169Z,54.10
2018-06-03T16:05:08.739Z,53.40
2018-06-03T16:07:35.217Z,53.30
2018-06-03T16:10:01.711Z,53.30
2018-06-03T16:12:28.189Z,53.30
2018-06-03T16:14:54.731Z,53.30
2018-06-03T16:17:21.210Z,53.40
2018-06-03T16:19:47.703Z,53.20
2018-06-03T16:22:14.222Z,53.20
2018-06-03T16:24:40.725Z,53.30
2018-06-03T16:27:07.226Z,53.20
2018-06-03T16:29:33.705Z,53.30
2018-06-03T16:32:00.184Z,53.10
2018-06-03T16:34:27.177Z,53.30
2018-06-03T16:36:53.684Z,53.30
2018-06-03T16:39:20.838Z,53.40
2018-06-03T16:41:47.346Z,53.20
2018-06-03T16:44:13.830Z,53.40
2018-06-03T16:46:40.313Z,53.30
2018-06-03T16:49:18.941Z,53.20
2018-06-03T16:51:45.603Z,52.70
2018-06-03T16:54:12.235Z,52.80
2018-06-03T16:56:39.255Z,53.60
2018-06-03T16:59:06.285Z,53.10
2018-06-03T17:01:32.757Z,53.10
2018-06-03T17:03:59.741Z,50.90
2018-06-03T17:06:26.342Z,49.70
2018-06-03T17:08:52.847Z,48.80
2018-06-03T17:11:19.343Z,47.00
2018-06-03T17:13:45.911Z,46.10
2018-06-03T17:16:12.458Z,46.10
2018-06-03T17:18:38.983Z,45.80
2018-06-03T17:21:05.489Z,45.70
2018-06-03T17:23:31.994Z,45.60
2018-06-03T17:25:58.535Z,46.60
2018-06-03T17:28:25.032Z,48.80
2018-06-03T17:30:51.544Z,47.30
2018-06-03T17:33:18.718Z,48.80
2018-06-03T17:35:45.298Z,48.60
2018-06-03T17:38:11.779Z,48.60
2018-06-03T17:40:38.281Z,48.40
2018-06-03T17:43:04.751Z,47.20
2018-06-03T17:45:31.239Z,47.60
2018-06-03T17:47:57.831Z,47.50
2018-06-03T17:50:24.365Z,47.90
2018-06-03T17:52:50.860Z,49.20
2018-06-03T17:55:17.340Z,48.50
2018-06-03T17:57:43.844Z,48.20
2018-06-03T18:00:10.326Z,47.20
2018-06-03T18:02:36.819Z,47.40
2018-06-03T18:05:03.846Z,48.50
2018-06-03T18:07:30.304Z,48.40
2018-06-03T18:09:56.787Z,48.00
2018-06-03T18:12:23.387Z,47.90
2018-06-03T18:14:49.933Z,48.20
2018-06-03T18:17:16.426Z,48.40
2018-06-03T18:19:42.899Z,47.70
2018-06-03T18:22:10.073Z,47.30
2018-06-03T18:24:36.546Z,47.30
2018-06-03T18:27:03.010Z,47.50
2018-06-03T18:29:29.470Z,47.50
2018-06-03T18:31:56.074Z,47.70
2018-06-03T18:34:22.679Z,46.50
2018-06-03T18:36:49.272Z,47.10
2018-06-03T18:39:15.792Z,47.70
2018-06-03T18:41:42.228Z,48.30
2018-06-03T18:44:08.770Z,48.40
2018-06-03T18:46:35.225Z,49.00
2018-06-03T18:49:01.688Z,49.30
2018-06-03T18:51:28.179Z,49.40
2018-06-03T18:53:54.691Z,49.60
2018-06-03T18:56:21.160Z,49.80
2018-06-03T18:58:47.765Z,50.50
2018-06-03T19:01:14.294Z,50.70
2018-06-03T19:03:40.797Z,50.50
2018-06-03T19:06:07.320Z,51.00
2018-06-03T19:08:33.838Z,51.00
2018-06-03T19:11:00.396Z,51.20
2018-06-03T19:13:26.929Z,51.20
2018-06-03T19:15:53.536Z,51.70
2018-06-03T19:18:20.062Z,51.90
2018-06-03T19:20:46.576Z,51.90
2018-06-03T19:23:13.053Z,52.10
2018-06-03T19:25:40.112Z,52.00
2018-06-03T19:28:06.627Z,52.10
2018-06-03T19:30:33.135Z,52.20
2018-06-03T19:32:59.620Z,52.60
2018-06-03T19:35:26.096Z,52.30
2018-06-03T19:37:52.608Z,52.20
2018-06-03T19:40:19.085Z,52.10
2018-06-03T19:42:45.512Z,52.40
2018-06-03T19:45:11.923Z,52.60
2018-06-03T19:47:38.318Z,53.40
2018-06-03T19:50:04.748Z,52.90
2018-06-03T19:52:32.131Z,52.80
2018-06-03T19:54:58.591Z,52.70
2018-06-03T19:57:24.998Z,52.60
2018-06-03T19:59:51.442Z,52.60
2018-06-03T20:02:17.968Z,52.50
2018-06-03T20:04:44.547Z,53.40
2018-06-03T20:07:10.946Z,53.00
2018-06-03T20:09:37.347Z,52.70
2018-06-03T20:12:03.754Z,52.60
2018-06-03T20:14:30.170Z,52.60
2018-06-03T20:16:56.580Z,52.60
2018-06-03T20:19:22.990Z,53.00
2018-06-03T20:21:49.407Z,53.10
2018-06-03T20:24:15.869Z,53.70
2018-06-03T20:29:09.366Z,53.80
2018-06-03T20:31:35.909Z,54.30
2018-06-03T20:34:02.358Z,54.40
2018-06-03T20:36:28.854Z,55.30
2018-06-03T20:38:55.354Z,54.50
2018-06-03T20:41:21.844Z,54.40
2018-06-03T20:43:48.363Z,54.70
2018-06-03T20:46:14.855Z,54.90
2018-06-03T20:48:41.387Z,55.00
2018-06-03T20:51:07.905Z,55.00
2018-06-03T20:53:34.427Z,55.20
2018-06-03T20:56:00.930Z,55.20
2018-06-03T20:58:27.429Z,55.20
2018-06-03T21:00:53.896Z,55.20
2018-06-03T21:03:20.408Z,55.10
2018-06-03T21:05:46.942Z,55.10
2018-06-03T21:08:13.488Z,55.20
2018-06-03T21:10:39.974Z,55.20
2018-06-03T21:13:06.451Z,55.30
2018-06-03T21:15:32.946Z,55.20
2018-06-03T21:17:59.431Z,55.30
2018-06-03T21:20:25.902Z,55.20
2018-06-03T21:22:52.399Z,55.30
2018-06-03T21:25:18.889Z,55.30
2018-06-03T21:27:45.371Z,55.30
2018-06-03T21:30:11.883Z,55.40
2018-06-03T21:32:38.362Z,55.30
2018-06-03T21:35:04.876Z,55.30
2018-06-03T21:37:31.397Z,55.40
2018-06-03T21:39:57.929Z,55.50
2018-06-03T21:42:24.433Z,55.50
2018-06-03T21:44:50.919Z,55.40
2018-06-03T21:47:17.473Z,55.40
2018-06-03T21:49:43.997Z,55.50
2018-06-03T21:54:37.643Z,55.40
2018-06-03T21:57:04.152Z,55.60
2018-06-03T21:59:30.641Z,55.70
2018-06-03T22:01:57.141Z,55.80
2018-06-03T22:04:23.605Z,55.80
2018-06-03T22:06:50.105Z,55.90
2018-06-03T22:09:16.638Z,55.70
2018-06-03T22:11:43.113Z,55.80
2018-06-03T22:14:09.599Z,55.80
2018-06-03T22:16:36.083Z,55.80
2018-06-03T22:19:02.662Z,55.80
2018-06-03T22:21:29.157Z,55.80
2018-06-03T22:23:55.623Z,55.90
2018-06-03T22:26:22.094Z,55.90
2018-06-03T22:28:48.557Z,55.90
2018-06-03T22:31:15.035Z,55.80
2018-06-03T22:33:41.517Z,55.90
2018-06-03T22:36:08.005Z,55.70
2018-06-03T22:38:34.537Z,55.90
2018-06-03T22:41:01.021Z,55.80
2018-06-03T22:43:27.520Z,55.90
2018-06-03T22:45:54.016Z,55.80
2018-06-03T22:48:20.459Z,56.00
2018-06-03T22:50:46.947Z,55.80
2018-06-03T22:53:13.398Z,55.90
2018-06-03T22:55:39.879Z,55.90
2018-06-03T22:58:06.325Z,56.00
2018-06-03T23:00:33.314Z,55.90
2018-06-03T23:03:05.466Z,55.90
2018-06-03T23:05:31.915Z,56.00
2018-06-03T23:07:58.420Z,56.00
2018-06-03T23:10:25.036Z,56.10
2018-06-03T23:12:51.522Z,56.00
2018-06-03T23:15:18.031Z,55.90
2018-06-03T23:17:44.629Z,55.90
2018-06-03T23:20:11.601Z,55.90
2018-06-03T23:22:39.861Z,55.90
2018-06-03T23:25:06.575Z,56.00
2018-06-03T23:27:33.670Z,55.90
2018-06-03T23:30:00.340Z,55.90
2018-06-03T23:32:27.274Z,55.90
2018-06-03T23:34:54.287Z,55.70
2018-06-03T23:37:21.801Z,55.70
2018-06-03T23:39:48.722Z,55.60
2018-06-03T23:42:15.204Z,55.70
2018-06-03T23:44:41.834Z,56.00
2018-06-03T23:47:08.327Z,56.00
2018-06-03T23:49:34.885Z,56.00
2018-06-03T23:52:02.033Z,56.00
2018-06-03T23:54:28.508Z,56.70
2018-06-03T23:56:54.959Z,56.10
2018-06-03T23:59:22.079Z,56.20
